Atlantic Horizon — C6XI2 — position and weather

sailwx.info

Track history (hours):
 
Tides and Currents Weather Stations Pressure Air Temp Water Temp Dewpoint Dewpoint Depression Visibility Wind Speed Wind Dir Waves Ship Positions

Atlantic Horizon

Last reported at 2016-Feb-06 23:05 UTC. Time now 2016-Feb-14 12:44 UTC.
Position N 01°47' E 102°38'.

Length 225 m; draft 11.6 m.

Type: Cargo ship. MMSI: 311010300.

Date/timePositionNaut miles runAvg speedWind from/ knotsBaromVisibWave heightAir tempDewpointWater temp
2016-Feb-06 23:05N 01°47' E 102°38'712.4
2016-Feb-06 22:29N 01°44' E 102°45'6813.9
2016-Feb-06 17:33N 01°09' E 103°43'1212.0
2016-Feb-06 16:33N 01°14' E 103°54'5 5.1
2016-Feb-06 15:33N 01°17' E 103°58'2 1.6
2016-Feb-06 14:28N 01°17' E 103°57'0 0.0
2016-Feb-06 13:28N 01°17' E 103°57'0 0.0
2016-Feb-06 11:27N 01°17' E 103°57'0 0.0
2016-Feb-06 10:28N 01°17' E 103°57'0 0.0
2016-Feb-06 09:28N 01°17' E 103°57'0 0.2
2016-Feb-06 08:28N 01°17' E 103°57'0 0.0
2016-Feb-06 07:31N 01°17' E 103°57'0 0.0
2016-Feb-06 06:34N 01°17' E 103°57'0 0.0
2016-Feb-06 05:33N 01°17' E 103°57'0 0.0
2016-Feb-06 04:28N 01°17' E 103°57'0 0.1
2016-Feb-06 03:18N 01°17' E 103°57'0 0.2
2016-Feb-06 02:31N 01°17' E 103°57'0 0.1
2016-Feb-06 01:31N 01°17' E 103°57'2 2.0
2016-Feb-06 00:33N 01°16' E 103°58'6 6.1
2016-Feb-05 23:32N 01°16' E 104°04'  
Track history (hours):
 
Tides and Currents Weather Stations Pressure Air Temp Water Temp Dewpoint Dewpoint Depression Visibility Wind Speed Wind Dir Waves Ship Positions

Atlantic Horizon

Last reported at 2016-Feb-06 23:05 UTC. Time now 2016-Feb-14 12:44 UTC.
Position N 01°47' E 102°38'.

Length 225 m; draft 11.6 m.

Type: Cargo ship. MMSI: 311010300.

Date/timePositionNaut miles runAvg speedWind from/ knotsBaromVisibWave heightAir tempDewpointWater temp
2016-Feb-06 23:05N 01°47' E 102°38'712.4
2016-Feb-06 22:29N 01°44' E 102°45'6813.9
2016-Feb-06 17:33N 01°09' E 103°43'1212.0
2016-Feb-06 16:33N 01°14' E 103°54'5 5.1
2016-Feb-06 15:33N 01°17' E 103°58'2 1.6
2016-Feb-06 14:28N 01°17' E 103°57'0 0.0
2016-Feb-06 13:28N 01°17' E 103°57'0 0.0
2016-Feb-06 11:27N 01°17' E 103°57'0 0.0
2016-Feb-06 10:28N 01°17' E 103°57'0 0.0
2016-Feb-06 09:28N 01°17' E 103°57'0 0.2
2016-Feb-06 08:28N 01°17' E 103°57'0 0.0
2016-Feb-06 07:31N 01°17' E 103°57'0 0.0
2016-Feb-06 06:34N 01°17' E 103°57'0 0.0
2016-Feb-06 05:33N 01°17' E 103°57'0 0.0
2016-Feb-06 04:28N 01°17' E 103°57'0 0.1
2016-Feb-06 03:18N 01°17' E 103°57'0 0.2
2016-Feb-06 02:31N 01°17' E 103°57'0 0.1
2016-Feb-06 01:31N 01°17' E 103°57'2 2.0
2016-Feb-06 00:33N 01°16' E 103°58'6 6.1
2016-Feb-05 23:32N 01°16' E 104°04'  

Dump ship's entire track history